Dawson, IA

11:15 AM CDT on September 28, 2016 (GMT -0500)
KIAMADRI2 | | Change Station

Elev 1020 ft 41.88 °N, 93.82 °W | Updated 474 days ago

Cloudy
Cloudy
61 °F
Feels Like 61 °F
N
13
Wind Variable Wind from North
Gusts mph

Today
High -- | Low -- °F
--% Chance of Precip.
Yesterday
High -- | Low -- °F
Precip. -- in
Pressure 30.13 in
Visibility 10.0 miles
Clouds Overcast 2300 ft
Dew Point 47 °F
Humidity 58%
Rainfall in
Snow Depth Not available.
7:11 AM 7:02 PM
Waning Crescent, 5% visible
METAR KPRO 281555Z AUTO 36010G19KT 10SM OVC023 13/09 A3013 RMK AO2 T01310085
Pressure 30.13 in
Visibility 10.0 miles
Clouds Overcast 2300 ft
Dew Point 47 °F
Humidity 58%
Rainfall in
Snow Depth Not available.
7:11 AM 7:02 PM
Waning Crescent, 5% visible
METAR KPRO 281555Z AUTO 36010G19KT 10SM OVC023 13/09 A3013 RMK AO2 T01310085

10-Day Weather Forecast

Almanac

Astronomy

Sep. 28, 2016 Rise Set
Actual Time
Civil Twilight
Nautical Twilight
Astronomical Twilight
Moon
Length of Visible Light
Length of Day
Tomorrow will be .
, % of the Moon is Illuminated

Today's Extremes

State Highs State Lows

Community

WunderPhotos

Upload Photos

1,942,274 photos uploaded!

WunderBlog® & News

Nearby

Air Quality

  Air Quality AQ Index Pollutant
Not available.

Snow Depth

Station Depth Elevation

Earthquake Activity

City Distance Mag. Time & Date
Minimum magnitude displayed is 2.5.

Coastal Water Temperatures

Place Temperature

Stations

Nearby Weather Stations

Station Location Temp. Windchill Dew Point Humidity Wind Precip. Elev Updated Type
                   

Watches & Warnings

There are currently no watches in effect.